createdAt,value
2022-11-26T00:02:25.039Z,23.33
2022-11-26T00:04:52.704Z,20.63
2022-11-26T00:07:26.083Z,18.63
2022-11-26T00:09:54.268Z,20.77
2022-11-26T00:12:20.592Z,19.80
2022-11-26T00:14:47.451Z,16.63
2022-11-26T00:17:17.523Z,18.35
2022-11-26T00:19:45.399Z,19.83
2022-11-26T00:22:30.537Z,22.42
2022-11-26T00:24:57.781Z,21.52
2022-11-26T00:27:26.694Z,20.33
2022-11-26T00:29:54.197Z,21.40
2022-11-26T00:32:23.404Z,21.80
2022-11-26T00:34:50.100Z,30.27
2022-11-26T00:37:27.246Z,20.25
2022-11-26T00:39:54.743Z,20.63
2022-11-26T00:42:21.388Z,18.98
2022-11-26T00:44:47.883Z,22.00
2022-11-26T00:47:14.347Z,19.23
2022-11-26T00:49:40.747Z,23.20
2022-11-26T00:52:24.322Z,18.75
2022-11-26T00:54:50.818Z,20.60
2022-11-26T00:57:17.276Z,19.20
2022-11-26T00:59:44.229Z,19.27
2022-11-26T01:02:10.665Z,24.95
2022-11-26T01:04:37.507Z,21.50
2022-11-26T01:07:04.118Z,16.40
2022-11-26T01:09:30.891Z,20.58
2022-11-26T01:11:57.277Z,21.58
2022-11-26T01:14:24.071Z,14.93
2022-11-26T01:16:51.314Z,20.90
2022-11-26T01:19:17.756Z,18.80
2022-11-26T01:21:44.271Z,20.42
2022-11-26T01:24:10.669Z,20.38
2022-11-26T01:26:40.591Z,20.23
2022-11-26T01:29:07.383Z,17.63
2022-11-26T01:31:33.834Z,22.23
2022-11-26T01:34:01.048Z,19.42
2022-11-26T01:36:28.572Z,16.80
2022-11-26T01:38:58.288Z,18.83
2022-11-26T01:41:42.398Z,19.17
2022-11-26T01:44:17.345Z,18.45
2022-11-26T01:46:44.411Z,17.90
2022-11-26T01:49:21.928Z,17.10
2022-11-26T01:51:55.170Z,11.85
2022-11-26T01:54:21.719Z,15.85
2022-11-26T01:56:51.618Z,15.90
2022-11-26T01:59:32.921Z,17.83
2022-11-26T02:01:59.654Z,17.33
2022-11-26T02:04:33.209Z,20.60
2022-11-26T02:07:00.455Z,20.73
2022-11-26T02:09:28.601Z,18.25
2022-11-26T02:11:55.203Z,30.02
2022-11-26T02:14:28.660Z,17.10
2022-11-26T02:17:27.340Z,18.40
2022-11-26T02:20:20.184Z,15.65
2022-11-26T02:22:49.441Z,23.17
2022-11-26T02:25:37.129Z,16.05
2022-11-26T02:28:41.803Z,13.48
2022-11-26T02:31:29.400Z,14.43
2022-11-26T02:34:17.215Z,13.68
2022-11-26T02:36:53.451Z,16.77
2022-11-26T02:39:22.734Z,25.33
2022-11-26T02:41:52.773Z,14.43
2022-11-26T02:44:23.404Z,19.67
2022-11-26T02:46:56.294Z,16.42
2022-11-26T02:49:22.829Z,15.52
2022-11-26T02:51:53.707Z,17.98
2022-11-26T02:54:22.330Z,16.92
2022-11-26T02:56:50.494Z,17.90
2022-11-26T02:59:17.637Z,19.65
2022-11-26T03:02:00.838Z,16.83
2022-11-26T03:04:35.193Z,16.77
2022-11-26T03:07:05.842Z,21.65
2022-11-26T03:09:50.592Z,15.27
2022-11-26T03:12:17.003Z,18.67
2022-11-26T03:14:43.507Z,15.43
2022-11-26T03:17:10.052Z,12.85
2022-11-26T03:19:36.546Z,18.70
2022-11-26T03:22:03.279Z,19.58
2022-11-26T03:24:30.937Z,16.25
2022-11-26T03:26:57.320Z,14.98
2022-11-26T03:29:23.709Z,14.10
2022-11-26T03:31:53.740Z,15.13
2022-11-26T03:34:20.928Z,16.63
2022-11-26T03:36:47.315Z,15.95
2022-11-26T03:39:13.967Z,16.02
2022-11-26T03:41:44.043Z,13.98
2022-11-26T03:44:13.681Z,12.73
2022-11-26T03:46:40.321Z,14.95
2022-11-26T03:49:07.140Z,15.63
2022-11-26T03:51:33.560Z,13.85
2022-11-26T03:54:00.087Z,16.00
2022-11-26T03:56:26.501Z,18.85
2022-11-26T03:58:53.185Z,15.20
2022-11-26T04:01:19.658Z,16.15
2022-11-26T04:03:46.170Z,14.02
2022-11-26T04:06:12.831Z,11.50
2022-11-26T04:08:39.209Z,16.17
2022-11-26T04:11:05.747Z,13.15
2022-11-26T04:13:32.109Z,16.13
2022-11-26T04:15:58.466Z,16.33
2022-11-26T04:18:24.853Z,11.43
2022-11-26T04:20:53.204Z,12.00
2022-11-26T04:23:20.111Z,16.02
2022-11-26T04:25:47.150Z,12.23
2022-11-26T04:28:15.158Z,15.77
2022-11-26T04:30:42.740Z,14.07
2022-11-26T04:33:09.293Z,15.52
2022-11-26T04:35:36.086Z,16.98
2022-11-26T04:38:02.519Z,12.10
2022-11-26T04:40:29.117Z,14.65
2022-11-26T04:42:55.549Z,15.05
2022-11-26T04:45:22.052Z,13.50
2022-11-26T04:47:48.428Z,19.30
2022-11-26T04:50:14.798Z,14.98
2022-11-26T04:52:41.207Z,15.00
2022-11-26T04:55:07.984Z,15.02
2022-11-26T04:57:34.368Z,15.70
2022-11-26T05:00:00.973Z,16.05
2022-11-26T05:02:27.463Z,12.30
2022-11-26T05:04:54.449Z,12.82
2022-11-26T05:07:20.977Z,18.75
2022-11-26T05:09:47.380Z,16.48
2022-11-26T05:12:13.729Z,14.55
2022-11-26T05:14:40.380Z,16.17
2022-11-26T05:17:07.371Z,17.73
2022-11-26T05:19:34.231Z,14.60
2022-11-26T05:22:00.644Z,15.48
2022-11-26T05:24:27.238Z,16.05
2022-11-26T05:26:56.822Z,15.68
2022-11-26T05:29:23.658Z,16.70
2022-11-26T05:31:50.156Z,14.45
2022-11-26T05:34:16.689Z,14.18
2022-11-26T05:36:43.059Z,14.45
2022-11-26T05:39:09.485Z,17.33
2022-11-26T05:41:35.916Z,13.85
2022-11-26T05:44:02.304Z,17.02
2022-11-26T05:46:29.069Z,16.63
2022-11-26T05:48:55.458Z,22.83
2022-11-26T05:51:22.283Z,17.75
2022-11-26T05:53:48.734Z,23.65
2022-11-26T05:56:15.689Z,21.77
2022-11-26T05:58:43.055Z,16.05
2022-11-26T06:01:10.040Z,17.30
2022-11-26T06:03:37.791Z,17.50
2022-11-26T06:06:05.116Z,14.82
2022-11-26T06:08:31.747Z,20.38
2022-11-26T06:10:58.276Z,18.58
2022-11-26T06:13:24.904Z,20.80
2022-11-26T06:15:51.484Z,19.95
2022-11-26T06:18:18.176Z,19.27
2022-11-26T06:20:44.941Z,17.02
2022-11-26T06:23:11.852Z,16.40
2022-11-26T06:25:42.327Z,14.95
2022-11-26T06:28:08.895Z,15.32
2022-11-26T06:30:35.261Z,15.50
2022-11-26T06:33:01.798Z,16.65
2022-11-26T06:35:28.501Z,20.20
2022-11-26T06:37:54.897Z,15.27
2022-11-26T06:40:21.431Z,15.50
2022-11-26T06:42:52.838Z,15.95
2022-11-26T06:45:21.155Z,24.40
2022-11-26T06:47:49.266Z,18.55
2022-11-26T06:50:21.645Z,13.82
2022-11-26T06:52:55.266Z,15.32
2022-11-26T06:57:52.175Z,19.77
2022-11-26T07:00:19.082Z,25.63
2022-11-26T07:02:45.874Z,17.60
2022-11-26T07:05:12.454Z,27.52
2022-11-26T07:07:40.309Z,24.35
2022-11-26T07:10:08.060Z,14.65
2022-11-26T07:12:34.599Z,26.17
2022-11-26T07:15:01.147Z,17.90
2022-11-26T07:17:28.949Z,19.35
2022-11-26T07:19:55.362Z,16.40
2022-11-26T07:22:21.742Z,19.10
2022-11-26T07:24:48.355Z,18.90
2022-11-26T07:27:14.743Z,16.75
2022-11-26T07:29:41.136Z,27.15
2022-11-26T07:32:07.575Z,23.95
2022-11-26T07:34:34.017Z,24.83
2022-11-26T07:37:01.527Z,28.05
2022-11-26T07:39:27.896Z,33.33
2022-11-26T07:41:54.312Z,31.95
2022-11-26T07:44:20.760Z,29.75
2022-11-26T07:46:47.241Z,24.40
2022-11-26T07:49:13.652Z,29.33
2022-11-26T07:51:40.115Z,27.92
2022-11-26T07:54:07.960Z,29.70
2022-11-26T07:56:34.783Z,29.00
2022-11-26T07:59:02.205Z,20.58
2022-11-26T08:01:29.840Z,28.00
2022-11-26T08:03:57.492Z,20.88
2022-11-26T08:06:26.414Z,21.15
2022-11-26T08:08:53.470Z,24.15
2022-11-26T08:11:26.174Z,21.23
2022-11-26T08:13:58.266Z,22.30
2022-11-26T08:16:26.792Z,24.67
2022-11-26T08:18:57.131Z,19.98
2022-11-26T08:21:24.283Z,22.48
2022-11-26T08:23:52.455Z,21.27
2022-11-26T08:26:27.381Z,20.17
2022-11-26T08:28:54.496Z,22.17
2022-11-26T08:31:22.361Z,18.00
2022-11-26T08:33:49.048Z,22.45
2022-11-26T08:36:18.481Z,18.02
2022-11-26T08:38:46.728Z,15.77
2022-11-26T08:41:14.130Z,15.45
2022-11-26T08:46:27.880Z,11.60
2022-11-26T08:48:57.846Z,13.43
2022-11-26T08:51:25.234Z,18.38
2022-11-26T08:53:52.086Z,14.10
2022-11-26T08:56:18.946Z,20.58
2022-11-26T08:58:46.571Z,15.13
2022-11-26T09:01:24.519Z,18.75
2022-11-26T09:03:52.581Z,13.93
2022-11-26T09:06:20.704Z,20.35
2022-11-26T09:09:06.300Z,12.18
2022-11-26T09:11:35.178Z,15.00
2022-11-26T09:14:02.576Z,14.77
2022-11-26T09:16:29.176Z,17.15
2022-11-26T09:18:56.464Z,10.90
2022-11-26T09:21:23.115Z,12.95
2022-11-26T09:23:49.737Z,16.80
2022-11-26T09:26:16.649Z,15.90
2022-11-26T09:28:43.045Z,16.75
2022-11-26T09:31:09.540Z,20.52
2022-11-26T09:33:36.036Z,24.27
2022-11-26T09:36:07.346Z,19.83
2022-11-26T09:38:34.931Z,23.08
2022-11-26T09:41:13.727Z,15.20
2022-11-26T09:44:01.748Z,15.70
2022-11-26T09:46:51.046Z,18.50
2022-11-26T09:49:31.466Z,12.95
2022-11-26T09:51:59.569Z,14.35
2022-11-26T09:54:29.680Z,17.00
2022-11-26T09:57:06.234Z,13.68
2022-11-26T09:59:34.880Z,15.75
2022-11-26T10:02:01.413Z,17.45
2022-11-26T10:04:33.240Z,12.63
2022-11-26T10:07:20.893Z,16.60
2022-11-26T10:10:26.303Z,11.93
2022-11-26T10:13:20.399Z,10.90
2022-11-26T10:15:56.381Z,17.02
2022-11-26T10:18:37.742Z,15.50
2022-11-26T10:21:32.476Z,13.77
2022-11-26T10:24:16.050Z,12.00
2022-11-26T10:26:43.113Z,13.35
2022-11-26T10:29:18.382Z,17.20
2022-11-26T10:31:47.211Z,10.07
2022-11-26T10:34:18.737Z,17.55
2022-11-26T10:36:47.197Z,15.50
2022-11-26T10:39:16.770Z,15.98
2022-11-26T10:41:43.916Z,12.85
2022-11-26T10:44:32.548Z,12.90
2022-11-26T10:47:00.247Z,13.80
2022-11-26T10:49:29.627Z,12.80
2022-11-26T10:52:01.809Z,14.75
2022-11-26T10:54:33.595Z,15.32
2022-11-26T10:57:08.966Z,13.07
2022-11-26T10:59:49.388Z,12.77
2022-11-26T11:02:41.050Z,13.73
2022-11-26T11:05:09.610Z,13.88
2022-11-26T11:07:38.702Z,10.23
2022-11-26T11:10:08.147Z,15.60
2022-11-26T11:12:39.316Z,12.27
2022-11-26T11:15:21.139Z,12.55
2022-11-26T11:17:54.791Z,17.42
2022-11-26T11:23:11.616Z,17.48
2022-11-26T11:25:45.555Z,14.48
2022-11-26T11:28:12.568Z,16.38
2022-11-26T11:30:41.353Z,17.88
2022-11-26T11:33:24.423Z,22.25
2022-11-26T11:36:06.271Z,17.93
2022-11-26T11:38:47.658Z,14.63
2022-11-26T11:41:22.393Z,17.67
2022-11-26T11:43:49.140Z,11.65
2022-11-26T11:46:34.342Z,16.95
2022-11-26T11:49:32.010Z,13.38
2022-11-26T11:52:04.603Z,18.80
2022-11-26T11:54:56.941Z,18.08
2022-11-26T11:57:48.506Z,20.90
2022-11-26T12:00:21.646Z,18.02
2022-11-26T12:02:59.725Z,17.25
2022-11-26T12:05:35.459Z,12.98
2022-11-26T12:08:15.186Z,18.25
2022-11-26T12:10:54.686Z,15.48
2022-11-26T12:13:24.408Z,19.15
2022-11-26T12:15:58.119Z,22.85
2022-11-26T12:20:56.325Z,15.65
2022-11-26T12:23:38.051Z,17.40
2022-11-26T12:26:23.266Z,16.33
2022-11-26T12:29:15.880Z,18.27
2022-11-26T12:31:48.835Z,20.48
2022-11-26T12:34:34.852Z,18.83
2022-11-26T12:37:11.059Z,23.15
2022-11-26T12:39:53.828Z,13.57
2022-11-26T12:42:45.228Z,22.85
2022-11-26T12:45:21.852Z,17.23
2022-11-26T12:47:57.898Z,19.25
2022-11-26T12:50:39.487Z,14.02
2022-11-26T12:53:24.665Z,17.40
2022-11-26T12:56:08.347Z,20.10
2022-11-26T12:58:57.939Z,16.95
2022-11-26T13:01:29.094Z,23.38
2022-11-26T13:04:21.603Z,15.77
2022-11-26T13:07:16.686Z,15.82
2022-11-26T13:09:55.082Z,18.30
2022-11-26T13:12:59.197Z,15.82
2022-11-26T13:15:39.345Z,15.38
2022-11-26T13:18:29.780Z,16.75
2022-11-26T13:21:14.034Z,29.63
2022-11-26T13:23:59.310Z,21.77
2022-11-26T13:26:59.474Z,25.23
2022-11-26T13:29:55.454Z,12.25
2022-11-26T13:33:02.326Z,17.92
2022-11-26T13:36:11.263Z,19.17
2022-11-26T13:38:46.775Z,24.45
2022-11-26T13:41:59.785Z,23.75
2022-11-26T13:44:49.380Z,25.38
2022-11-26T13:47:27.330Z,22.98
2022-11-26T13:50:01.118Z,20.42
2022-11-26T13:52:43.898Z,20.08
2022-11-26T13:55:19.151Z,19.33
2022-11-26T13:57:49.101Z,12.60
2022-11-26T14:00:31.373Z,16.13
2022-11-26T14:02:59.527Z,27.92
2022-11-26T14:05:50.616Z,17.70
2022-11-26T14:08:32.245Z,18.35
2022-11-26T14:10:58.612Z,17.17
2022-11-26T14:13:25.049Z,19.35
2022-11-26T14:15:51.367Z,26.05
2022-11-26T14:18:38.166Z,18.70
2022-11-26T14:21:07.533Z,22.52
2022-11-26T14:23:46.581Z,23.27
2022-11-26T14:26:19.025Z,22.90
2022-11-26T14:28:45.691Z,14.60
2022-11-26T14:31:24.516Z,20.70
2022-11-26T14:33:54.562Z,19.80
2022-11-26T14:36:24.364Z,16.45
2022-11-26T14:39:16.275Z,16.73
2022-11-26T14:41:42.698Z,16.83
2022-11-26T14:44:15.371Z,16.48
2022-11-26T14:46:47.651Z,17.98
2022-11-26T14:49:41.123Z,17.25
2022-11-26T14:52:20.531Z,19.05
2022-11-26T14:54:50.471Z,22.60
2022-11-26T14:57:22.436Z,19.35
2022-11-26T14:59:57.467Z,19.05
2022-11-26T15:02:25.653Z,20.05
2022-11-26T15:05:04.682Z,16.33
2022-11-26T15:07:31.619Z,95.95
2022-11-26T15:10:18.676Z,28.23
2022-11-26T15:12:47.850Z,27.25
2022-11-26T15:15:22.948Z,192.98
2022-11-26T15:17:57.438Z,119.15
2022-11-26T15:20:25.077Z,45.53
2022-11-26T15:23:00.549Z,31.25
2022-11-26T15:25:29.719Z,31.23
2022-11-26T15:28:04.642Z,29.55
2022-11-26T15:30:36.859Z,28.58
2022-11-26T15:33:12.382Z,21.60
2022-11-26T15:35:43.730Z,22.33
2022-11-26T15:38:16.619Z,20.63
2022-11-26T15:40:51.457Z,15.30
2022-11-26T15:43:31.536Z,19.83
2022-11-26T15:46:02.995Z,17.05
2022-11-26T15:48:57.987Z,24.15
2022-11-26T15:51:24.408Z,17.92
2022-11-26T15:53:51.176Z,16.13
2022-11-26T15:56:32.168Z,24.23
2022-11-26T15:59:02.949Z,26.48
2022-11-26T16:01:32.616Z,16.35
2022-11-26T16:04:04.548Z,18.42
2022-11-26T16:06:41.195Z,27.02
2022-11-26T16:09:13.659Z,21.35
2022-11-26T16:12:00.468Z,22.05
2022-11-26T16:14:26.851Z,22.63
2022-11-26T16:16:53.755Z,37.35
2022-11-26T16:19:23.800Z,21.92
2022-11-26T16:21:52.118Z,23.75
2022-11-26T16:24:35.299Z,22.90
2022-11-26T16:27:20.573Z,14.90
2022-11-26T16:29:47.452Z,21.70
2022-11-26T16:32:16.513Z,23.25
2022-11-26T16:34:44.615Z,20.45
2022-11-26T16:37:29.201Z,46.05
2022-11-26T16:40:09.029Z,24.77
2022-11-26T16:42:35.572Z,20.90
2022-11-26T16:45:04.307Z,30.42
2022-11-26T16:47:42.224Z,24.20
2022-11-26T16:50:22.667Z,26.08
2022-11-26T16:52:49.463Z,26.65
2022-11-26T16:55:18.546Z,30.13
2022-11-26T16:57:48.228Z,25.02
2022-11-26T17:00:18.541Z,26.05
2022-11-26T17:02:45.841Z,26.10
2022-11-26T17:05:13.131Z,25.77
2022-11-26T17:07:55.262Z,25.60
2022-11-26T17:10:28.715Z,20.35
2022-11-26T17:12:55.940Z,23.52
2022-11-26T17:15:22.557Z,27.33
2022-11-26T17:17:50.604Z,20.52
2022-11-26T17:20:21.098Z,22.42
2022-11-26T17:22:47.664Z,26.63
2022-11-26T17:25:14.817Z,22.08
2022-11-26T17:27:42.784Z,18.70
2022-11-26T17:30:27.518Z,21.88
2022-11-26T17:32:54.173Z,29.17
2022-11-26T17:35:20.714Z,30.92
2022-11-26T17:37:47.280Z,29.70
2022-11-26T17:40:19.527Z,29.00
2022-11-26T17:42:46.947Z,24.67
2022-11-26T17:45:14.633Z,26.00
2022-11-26T17:47:41.564Z,28.48
2022-11-26T17:50:23.844Z,27.77
2022-11-26T17:52:50.896Z,27.52
2022-11-26T17:55:18.321Z,35.55
2022-11-26T17:57:45.019Z,23.48
2022-11-26T18:00:15.680Z,22.17
2022-11-26T18:02:43.650Z,22.10
2022-11-26T18:05:11.072Z,27.48
2022-11-26T18:07:37.980Z,28.55
2022-11-26T18:10:06.775Z,25.98
2022-11-26T18:12:33.708Z,26.55
2022-11-26T18:15:02.082Z,24.90
2022-11-26T18:17:28.467Z,26.17
2022-11-26T18:19:54.956Z,29.77
2022-11-26T18:22:23.493Z,31.13
2022-11-26T18:24:56.934Z,29.08
2022-11-26T18:27:27.509Z,27.38
2022-11-26T18:29:54.178Z,30.90
2022-11-26T18:32:20.740Z,26.65
2022-11-26T18:34:50.276Z,28.92
2022-11-26T18:37:17.245Z,32.97
2022-11-26T18:39:43.674Z,28.83
2022-11-26T18:44:58.038Z,40.95
2022-11-26T18:47:24.590Z,27.15
2022-11-26T18:49:51.120Z,30.35
2022-11-26T18:52:18.741Z,31.13
2022-11-26T18:54:45.216Z,45.17
2022-11-26T18:57:11.625Z,52.58
2022-11-26T18:59:38.522Z,45.13
2022-11-26T19:02:05.198Z,41.92
2022-11-26T19:04:31.787Z,39.03
2022-11-26T19:06:58.230Z,47.40
2022-11-26T19:09:24.922Z,52.08
2022-11-26T19:11:54.359Z,49.72
2022-11-26T19:14:21.007Z,88.47
2022-11-26T19:16:50.349Z,66.57
2022-11-26T19:19:19.005Z,51.42
2022-11-26T19:21:45.542Z,51.85
2022-11-26T19:24:12.545Z,54.22
2022-11-26T19:26:41.159Z,49.63
2022-11-26T19:29:08.840Z,50.13
2022-11-26T19:31:38.984Z,51.35
2022-11-26T19:34:08.883Z,45.90
2022-11-26T19:36:36.317Z,48.75
2022-11-26T19:39:04.289Z,36.67
2022-11-26T19:41:31.046Z,39.30
2022-11-26T19:44:00.246Z,25.27
2022-11-26T19:46:27.011Z,25.10
2022-11-26T19:48:54.470Z,32.65
2022-11-26T19:51:22.654Z,26.08
2022-11-26T19:53:50.888Z,33.65
2022-11-26T19:56:20.804Z,31.77
2022-11-26T19:58:47.638Z,34.58
2022-11-26T20:01:16.436Z,34.88
2022-11-26T20:03:43.426Z,34.00
2022-11-26T20:06:21.765Z,35.78
2022-11-26T20:08:48.944Z,27.23
2022-11-26T20:11:16.716Z,29.70
2022-11-26T20:13:44.594Z,33.25
2022-11-26T20:16:17.342Z,24.73
2022-11-26T20:18:45.153Z,29.57
2022-11-26T20:21:15.327Z,27.58
2022-11-26T20:23:41.942Z,31.00
2022-11-26T20:26:29.106Z,30.00
2022-11-26T20:28:57.225Z,28.55
2022-11-26T20:31:24.267Z,29.20
2022-11-26T20:33:52.897Z,31.15
2022-11-26T20:36:20.930Z,27.63
2022-11-26T20:38:50.992Z,27.95
2022-11-26T20:41:17.502Z,28.73
2022-11-26T20:43:44.507Z,26.95
2022-11-26T20:46:14.108Z,26.38
2022-11-26T20:48:42.383Z,25.67
2022-11-26T20:51:11.775Z,31.13
2022-11-26T20:53:39.147Z,30.02
2022-11-26T20:56:06.344Z,28.55
2022-11-26T20:58:34.087Z,31.23
2022-11-26T21:01:01.562Z,31.17
2022-11-26T21:03:29.315Z,32.97
2022-11-26T21:05:55.848Z,28.55
2022-11-26T21:08:23.181Z,34.53
2022-11-26T21:10:50.597Z,34.55
2022-11-26T21:13:18.798Z,29.08
2022-11-26T21:15:48.720Z,28.80
2022-11-26T21:18:15.515Z,27.35
2022-11-26T21:20:43.269Z,31.88
2022-11-26T21:23:11.698Z,27.58
2022-11-26T21:25:39.870Z,30.35
2022-11-26T21:28:07.116Z,25.13
2022-11-26T21:30:35.088Z,30.55
2022-11-26T21:33:07.487Z,29.52
2022-11-26T21:35:35.858Z,24.63
2022-11-26T21:38:02.341Z,28.15
2022-11-26T21:40:29.107Z,30.02
2022-11-26T21:42:55.512Z,32.60
2022-11-26T21:45:22.547Z,29.80
2022-11-26T21:47:52.784Z,30.60
2022-11-26T21:50:19.767Z,28.13
2022-11-26T21:52:46.525Z,32.75
2022-11-26T21:55:12.941Z,36.20
2022-11-26T21:57:39.365Z,34.83
2022-11-26T22:00:06.470Z,32.53
2022-11-26T22:02:32.939Z,36.92
2022-11-26T22:04:59.412Z,32.67
2022-11-26T22:07:26.017Z,34.33
2022-11-26T22:09:52.565Z,41.22
2022-11-26T22:12:18.977Z,28.20
2022-11-26T22:14:45.365Z,28.75
2022-11-26T22:17:11.774Z,33.45
2022-11-26T22:19:38.556Z,29.83
2022-11-26T22:22:05.102Z,33.05
2022-11-26T22:24:31.504Z,32.60
2022-11-26T22:26:59.278Z,29.27
2022-11-26T22:29:25.772Z,26.92
2022-11-26T22:31:52.939Z,29.95
2022-11-26T22:34:22.000Z,34.28
2022-11-26T22:36:48.903Z,41.30
2022-11-26T22:39:18.517Z,28.08
2022-11-26T22:41:46.367Z,48.25
2022-11-26T22:44:14.153Z,52.38
2022-11-26T22:46:40.583Z,65.80
2022-11-26T22:49:07.827Z,57.78
2022-11-26T22:51:35.454Z,65.65
2022-11-26T22:54:04.944Z,45.55
2022-11-26T22:56:33.386Z,42.55
2022-11-26T22:59:01.105Z,49.47
2022-11-26T23:01:30.996Z,46.30
2022-11-26T23:03:59.739Z,31.77
2022-11-26T23:06:28.241Z,33.17
2022-11-26T23:08:55.959Z,25.10
2022-11-26T23:11:28.068Z,23.90
2022-11-26T23:13:54.980Z,21.80
2022-11-26T23:16:23.972Z,21.60
2022-11-26T23:18:51.794Z,26.17
2022-11-26T23:21:27.416Z,27.08
2022-11-26T23:23:54.274Z,21.98
2022-11-26T23:26:27.119Z,20.98
2022-11-26T23:28:58.291Z,21.60
2022-11-26T23:31:28.508Z,23.27
2022-11-26T23:33:55.418Z,20.85
2022-11-26T23:36:22.555Z,28.42
2022-11-26T23:38:49.234Z,26.08
2022-11-26T23:41:16.307Z,24.58
2022-11-26T23:43:42.826Z,22.27
2022-11-26T23:46:14.956Z,24.40
2022-11-26T23:48:42.032Z,29.92
2022-11-26T23:51:13.735Z,25.40
2022-11-26T23:53:42.184Z,30.38
2022-11-26T23:56:13.679Z,28.20
2022-11-26T23:58:42.998Z,27.05
